Time;durP1;ratioP1;P1;durP2;ratioP2;P2;SDS_P1;SDS_P2;PMS_P1;PMS_P2;Temp;Humidity;BMP_temperature;BMP_pressure;BME280_temperature;BME280_humidity;BME280_pressure;Samples;Min_cycle;Max_cycle;Signal;HPM_P1;HPM_P2
2022/12/06 00:00:09;;;;;;;7.88;2.65;;;;;;;;;;5030633;28;20568;-63
2022/12/06 00:02:39;;;;;;;5.03;2.33;;;;;;;;;;5000701;28;20060;-63
2022/12/06 00:05:09;;;;;;;6.47;2.40;;;;;;;;;;5017442;28;20489;-62
2022/12/06 00:07:40;;;;;;;7.90;2.63;;;;;;;;;;5050269;28;20052;-62
2022/12/06 00:10:10;;;;;;;6.43;2.22;;;;;;;;;;5050368;28;20400;-62
2022/12/06 00:12:40;;;;;;;6.40;2.65;;;;;;;;;;5050485;28;20500;-62
2022/12/06 00:15:10;;;;;;;5.97;2.85;;;;;;;;;;5050007;28;20489;-63
2022/12/06 00:17:40;;;;;;;7.97;3.38;;;;;;;;;;5049807;28;20056;-63
2022/12/06 00:20:11;;;;;;;8.05;3.05;;;;;;;;;;5050326;28;20191;-63
2022/12/06 00:22:44;;;;;;;5.30;3.10;;;;;;;;;;5050034;28;20071;-62
2022/12/06 00:25:15;;;;;;;10.50;3.60;;;;;;;;;;5017282;28;20045;-63
2022/12/06 00:27:45;;;;;;;6.68;3.30;;;;;;;;;;5046860;28;20392;-63
2022/12/06 00:30:15;;;;;;;10.85;2.95;;;;;;;;;;5092689;28;20043;-63
2022/12/06 00:32:46;;;;;;;8.30;2.70;;;;;;;;;;5092850;28;20048;-63
2022/12/06 00:35:17;;;;;;;6.28;3.00;;;;;;;;;;5073375;28;20048;-63
2022/12/06 00:37:47;;;;;;;5.20;2.42;;;;;;;;;;5074593;28;20040;-63
2022/12/06 00:40:17;;;;;;;5.35;2.92;;;;;;;;;;5073007;28;20487;-63
2022/12/06 00:42:47;;;;;;;5.97;2.50;;;;;;;;;;5092346;28;20392;-63
2022/12/06 00:45:17;;;;;;;6.80;2.40;;;;;;;;;;5039593;28;20055;-63
2022/12/06 00:47:47;;;;;;;5.05;2.17;;;;;;;;;;5056585;28;20063;-63
2022/12/06 00:50:17;;;;;;;6.82;3.10;;;;;;;;;;5073000;28;20052;-63
2022/12/06 00:52:47;;;;;;;8.65;2.80;;;;;;;;;;5056909;28;20063;-63
2022/12/06 00:55:18;;;;;;;6.40;2.60;;;;;;;;;;5055684;28;20055;-63
2022/12/06 00:57:48;;;;;;;6.85;3.17;;;;;;;;;;5092089;28;20056;-63
2022/12/06 01:00:18;;;;;;;7.53;2.28;;;;;;;;;;5091971;28;20044;-62
2022/12/06 01:02:48;;;;;;;5.68;2.70;;;;;;;;;;5006584;28;20048;-63
2022/12/06 01:05:18;;;;;;;6.47;2.72;;;;;;;;;;5091595;28;20494;-63
2022/12/06 01:07:48;;;;;;;7.78;2.45;;;;;;;;;;5055469;28;20056;-62
2022/12/06 01:10:19;;;;;;;6.15;2.78;;;;;;;;;;5091807;28;20044;-64
2022/12/06 01:12:49;;;;;;;8.13;2.80;;;;;;;;;;5074050;28;20487;-63
2022/12/06 01:15:19;;;;;;;10.18;3.40;;;;;;;;;;5091585;28;20044;-63
2022/12/06 01:17:49;;;;;;;8.80;3.47;;;;;;;;;;5091304;28;20048;-63
2022/12/06 01:20:19;;;;;;;6.80;2.75;;;;;;;;;;5091478;28;20491;-63
2022/12/06 01:22:49;;;;;;;5.25;2.33;;;;;;;;;;5091262;28;20059;-63
2022/12/06 01:25:19;;;;;;;8.73;3.10;;;;;;;;;;5048611;28;20060;-62
2022/12/06 01:27:53;;;;;;;7.65;2.55;;;;;;;;;;5048866;28;20068;-63
2022/12/06 01:30:24;;;;;;;7.65;2.60;;;;;;;;;;5031922;28;20527;-63
2022/12/06 01:32:55;;;;;;;5.57;2.45;;;;;;;;;;5048669;28;20053;-63
2022/12/06 01:35:25;;;;;;;4.72;2.38;;;;;;;;;;5032536;28;20061;-63
2022/12/06 01:37:55;;;;;;;5.15;2.03;;;;;;;;;;5015202;28;20571;-63
2022/12/06 01:40:39;;;;;;;5.75;2.28;;;;;;;;;;4992321;28;20427;-63
2022/12/06 01:43:30;;;;;;;4.32;2.70;;;;;;;;;;4992162;28;20045;-63
2022/12/06 01:46:10;;;;;;;4.80;2.60;;;;;;;;;;4900382;29;20063;-63
2022/12/06 01:48:40;;;;;;;9.80;2.63;;;;;;;;;;4931279;29;20051;-63
2022/12/06 01:51:13;;;;;;;8.35;2.97;;;;;;;;;;4915398;29;20071;-63
2022/12/06 01:53:45;;;;;;;;;;;;;;;;;;4931696;29;20047;-63
2022/12/06 01:56:15;;;;;;;7.97;3.28;;;;;;;;;;4930644;29;20375;-63
2022/12/06 01:58:47;;;;;;;7.32;3.20;;;;;;;;;;4931037;29;20507;-63
2022/12/06 02:01:17;;;;;;;4.38;2.58;;;;;;;;;;4931275;29;20424;-63
2022/12/06 02:03:48;;;;;;;5.90;3.03;;;;;;;;;;4947247;29;20059;-63
2022/12/06 02:06:18;;;;;;;5.35;3.20;;;;;;;;;;4950721;29;20055;-63
2022/12/06 02:08:50;;;;;;;6.22;2.30;;;;;;;;;;4903077;29;20403;-63
2022/12/06 02:11:20;;;;;;;10.65;3.55;;;;;;;;;;4933846;29;20047;-63
2022/12/06 02:13:51;;;;;;;5.50;2.28;;;;;;;;;;4918316;29;20071;-63
2022/12/06 02:16:29;;;;;;;14.30;3.70;;;;;;;;;;4934225;29;20055;-63
2022/12/06 02:19:02;;;;;;;;;;;;;;;;;;4985917;28;20061;-63
2022/12/06 02:21:50;;;;;;;9.55;3.40;;;;;;;;;;4973300;28;19945;-63
2022/12/06 02:24:42;;;;;;;7.22;3.20;;;;;;;;;;4978203;28;20049;-63
2022/12/06 02:27:29;;;;;;;12.13;3.30;;;;;;;;;;4996617;28;20061;-62
2022/12/06 02:30:17;;;;;;;9.27;2.70;;;;;;;;;;5012424;28;20050;-63
2022/12/06 02:32:53;;;;;;;7.03;3.42;;;;;;;;;;5014634;28;20058;-62
2022/12/06 02:36:07;;;;;;;6.55;3.20;;;;;;;;;;5051969;28;20037;-63
2022/12/06 02:38:58;;;;;;;6.15;3.10;;;;;;;;;;4960174;28;20059;-63
2022/12/06 02:42:01;;;;;;;5.28;2.40;;;;;;;;;;4992556;28;20158;-63
2022/12/06 02:44:55;;;;;;;6.25;3.05;;;;;;;;;;4956737;28;20058;-62
2022/12/06 02:47:34;;;;;;;9.57;3.08;;;;;;;;;;4973083;28;20046;-63
2022/12/06 02:50:10;;;;;;;7.97;2.90;;;;;;;;;;4972967;28;20640;-62
2022/12/06 02:52:44;;;;;;;5.85;3.47;;;;;;;;;;4972887;28;20553;-62
2022/12/06 02:55:16;;;;;;;6.82;2.88;;;;;;;;;;4952856;29;20415;-62
2022/12/06 02:57:49;;;;;;;10.00;4.10;;;;;;;;;;4905711;29;20059;-62
2022/12/06 03:00:33;;;;;;;5.65;3.00;;;;;;;;;;4934837;29;20189;-63
2022/12/06 03:03:31;;;;;;;7.15;3.67;;;;;;;;;;4934079;29;20060;-63
2022/12/06 03:06:00;;;;;;;;;;;;;;;;;;4923036;29;20070;-63
2022/12/06 03:09:03;;;;;;;12.57;2.95;;;;;;;;;;4917949;29;20332;-62
2022/12/06 03:11:56;;;;;;;9.60;3.53;;;;;;;;;;4934095;29;20055;-63
2022/12/06 03:14:32;;;;;;;15.13;3.90;;;;;;;;;;4935532;28;20074;-62
2022/12/06 03:17:18;;;;;;;7.57;2.92;;;;;;;;;;4975812;28;20054;-63
2022/12/06 03:19:55;;;;;;;8.35;3.15;;;;;;;;;;4992016;28;20091;-63
2022/12/06 03:22:34;;;;;;;7.60;2.63;;;;;;;;;;5025317;28;20635;-63
2022/12/06 03:25:09;;;;;;;10.13;3.10;;;;;;;;;;4998487;28;20053;-62
2022/12/06 03:27:40;;;;;;;;;;;;;;;;;;4998900;28;20049;-63
2022/12/06 03:30:13;;;;;;;9.18;3.20;;;;;;;;;;5031106;28;19921;-63
2022/12/06 03:32:47;;;;;;;9.23;2.90;;;;;;;;;;4998535;28;20046;-63
2022/12/06 03:35:25;;;;;;;8.70;3.40;;;;;;;;;;4994739;28;20061;-63
2022/12/06 03:38:03;;;;;;;10.07;3.70;;;;;;;;;;5011043;28;20058;-62
2022/12/06 03:40:37;;;;;;;6.68;3.40;;;;;;;;;;4962723;28;20054;-62
2022/12/06 03:43:07;;;;;;;9.23;3.80;;;;;;;;;;5010969;28;20050;-63
2022/12/06 03:46:01;;;;;;;7.13;3.50;;;;;;;;;;4973398;28;20056;-63
2022/12/06 03:49:08;;;;;;;10.98;3.63;;;;;;;;;;5017555;28;20060;-62
2022/12/06 03:51:39;;;;;;;8.95;4.03;;;;;;;;;;4990826;28;20055;-62
2022/12/06 03:54:11;;;;;;;10.52;3.33;;;;;;;;;;4943511;28;20070;-63
2022/12/06 03:56:41;;;;;;;9.25;4.13;;;;;;;;;;4974750;28;20493;-62
2022/12/06 03:59:11;;;;;;;5.85;2.83;;;;;;;;;;4991340;28;20057;-62
2022/12/06 04:01:41;;;;;;;11.10;3.80;;;;;;;;;;4991146;28;20057;-62
2022/12/06 04:04:11;;;;;;;6.53;3.63;;;;;;;;;;4958815;28;20055;-62
2022/12/06 04:06:41;;;;;;;10.13;4.13;;;;;;;;;;4942899;28;20058;-62
2022/12/06 04:12:00;;;;;;;12.73;4.15;;;;;;;;;;5030228;28;20053;-62
2022/12/06 04:14:38;;;;;;;7.80;3.33;;;;;;;;;;4997863;28;20496;-64
2022/12/06 04:19:56;;;;;;;8.13;3.40;;;;;;;;;;5030190;28;20041;-63
2022/12/06 04:25:15;;;;;;;9.93;3.95;;;;;;;;;;5029972;28;20079;-63
2022/12/06 04:39:28;;;;;;;10.68;3.70;;;;;;;;;;5030102;28;20452;-63
2022/12/06 04:44:48;;;;;;;10.20;3.78;;;;;;;;;;5029935;28;20041;-62
2022/12/06 04:47:18;;;;;;;10.23;3.83;;;;;;;;;;5029614;28;20049;-63
2022/12/06 04:49:48;;;;;;;8.10;3.70;;;;;;;;;;5029503;28;20059;-63
2022/12/06 04:52:18;;;;;;;8.55;3.88;;;;;;;;;;5029374;28;20088;-64
2022/12/06 04:54:48;;;;;;;8.40;3.60;;;;;;;;;;5029133;28;20057;-64
2022/12/06 04:57:19;;;;;;;9.60;3.90;;;;;;;;;;5029596;28;20481;-62
2022/12/06 04:59:49;;;;;;;6.95;3.75;;;;;;;;;;4990236;28;20073;-63
2022/12/06 05:02:20;;;;;;;7.90;3.72;;;;;;;;;;5005318;28;20056;-64
2022/12/06 05:04:50;;;;;;;8.98;4.18;;;;;;;;;;5049330;28;20049;-63
2022/12/06 05:07:20;;;;;;;9.48;3.60;;;;;;;;;;5049104;28;20497;-64
2022/12/06 05:09:50;;;;;;;6.93;3.70;;;;;;;;;;5032703;28;20511;-63
2022/12/06 05:12:19;;;;;;;6.45;3.92;;;;;;;;;;5049422;28;20057;-63
2022/12/06 05:14:49;;;;;;;9.18;3.20;;;;;;;;;;5016337;28;20057;-62
2022/12/06 05:17:19;;;;;;;8.10;3.75;;;;;;;;;;5048986;28;20057;-63
2022/12/06 05:19:49;;;;;;;7.18;3.38;;;;;;;;;;5049108;28;20188;-63
2022/12/06 05:22:19;;;;;;;9.15;3.88;;;;;;;;;;5048844;28;20063;-63
2022/12/06 05:24:50;;;;;;;6.25;3.30;;;;;;;;;;5028611;28;20058;-63
2022/12/06 05:27:21;;;;;;;5.30;3.33;;;;;;;;;;5029027;28;20053;-63
2022/12/06 05:29:51;;;;;;;7.55;3.78;;;;;;;;;;5012819;28;20102;-63
2022/12/06 05:32:20;;;;;;;10.48;3.67;;;;;;;;;;4980744;28;20068;-63
2022/12/06 05:34:51;;;;;;;7.63;3.40;;;;;;;;;;4996039;28;20461;-63
2022/12/06 05:37:20;;;;;;;8.57;3.78;;;;;;;;;;5038117;28;20128;-63
2022/12/06 05:39:50;;;;;;;8.48;3.53;;;;;;;;;;5015487;28;20056;-63
2022/12/06 05:42:20;;;;;;;7.45;3.90;;;;;;;;;;5032298;28;20060;-63
2022/12/06 05:44:50;;;;;;;10.88;3.17;;;;;;;;;;5032247;28;20448;-62
2022/12/06 05:47:20;;;;;;;7.82;3.33;;;;;;;;;;5008615;28;20053;-63
2022/12/06 05:49:50;;;;;;;8.65;3.70;;;;;;;;;;5008833;28;20068;-63
2022/12/06 05:52:20;;;;;;;14.70;4.47;;;;;;;;;;4976460;28;20054;-62
2022/12/06 05:54:50;;;;;;;9.32;3.40;;;;;;;;;;4971632;28;20054;-63
2022/12/06 05:57:20;;;;;;;7.28;3.55;;;;;;;;;;4940769;28;20457;-62
2022/12/06 05:59:50;;;;;;;6.15;3.88;;;;;;;;;;4940843;28;20058;-62
2022/12/06 06:02:20;;;;;;;8.27;3.90;;;;;;;;;;5007364;28;20065;-62
2022/12/06 06:04:51;;;;;;;9.77;3.50;;;;;;;;;;5028339;28;20046;-62
2022/12/06 06:07:22;;;;;;;7.55;3.22;;;;;;;;;;4995598;28;20441;-62
2022/12/06 06:09:52;;;;;;;8.77;3.67;;;;;;;;;;5012221;28;20520;-63
2022/12/06 06:12:22;;;;;;;9.50;3.58;;;;;;;;;;5008371;28;20053;-63
2022/12/06 06:14:52;;;;;;;10.05;3.72;;;;;;;;;;4976708;28;20100;-63
2022/12/06 06:17:23;;;;;;;10.00;3.28;;;;;;;;;;4992587;28;20054;-62
2022/12/06 06:19:53;;;;;;;6.95;3.42;;;;;;;;;;4984998;28;20481;-62
2022/12/06 06:22:23;;;;;;;9.63;3.50;;;;;;;;;;4969713;28;20063;-62
2022/12/06 06:24:53;;;;;;;5.85;3.53;;;;;;;;;;4978099;28;20058;-62
2022/12/06 06:27:24;;;;;;;10.57;3.05;;;;;;;;;;5008300;28;20058;-63
2022/12/06 06:29:53;;;;;;;7.10;3.55;;;;;;;;;;4940172;28;20054;-63
2022/12/06 06:32:23;;;;;;;7.65;3.58;;;;;;;;;;4989006;28;20054;-63
2022/12/06 06:34:54;;;;;;;9.60;4.60;;;;;;;;;;4988560;28;20058;-62
2022/12/06 06:37:24;;;;;;;6.78;3.10;;;;;;;;;;4988057;28;20046;-62
2022/12/06 06:39:54;;;;;;;8.25;3.63;;;;;;;;;;4988398;28;20058;-62
2022/12/06 06:42:24;;;;;;;9.20;3.75;;;;;;;;;;4988690;28;20058;-63
2022/12/06 06:44:54;;;;;;;9.05;2.72;;;;;;;;;;4988439;28;20065;-64
2022/12/06 06:47:24;;;;;;;7.65;3.05;;;;;;;;;;4988523;28;20409;-64
2022/12/06 06:49:54;;;;;;;5.35;3.45;;;;;;;;;;4997602;28;20061;-64
2022/12/06 06:52:25;;;;;;;13.48;4.15;;;;;;;;;;4988472;28;20097;-63
2022/12/06 06:54:55;;;;;;;5.85;3.90;;;;;;;;;;4987017;28;20066;-63
2022/12/06 06:57:24;;;;;;;8.35;3.10;;;;;;;;;;4949139;28;20451;-64
2022/12/06 06:59:55;;;;;;;14.57;3.97;;;;;;;;;;4956301;28;20046;-63
2022/12/06 07:02:25;;;;;;;6.38;3.03;;;;;;;;;;4956930;28;20065;-63
2022/12/06 07:04:55;;;;;;;7.75;3.35;;;;;;;;;;4908780;28;20054;-63
2022/12/06 07:07:25;;;;;;;5.45;3.50;;;;;;;;;;5000642;28;20494;-63
2022/12/06 07:09:55;;;;;;;8.63;3.42;;;;;;;;;;4995252;28;20046;-63
2022/12/06 07:12:25;;;;;;;7.53;2.70;;;;;;;;;;4981314;28;20054;-63
2022/12/06 07:14:55;;;;;;;6.88;3.05;;;;;;;;;;4992177;28;20638;-63
2022/12/06 07:17:25;;;;;;;5.65;3.47;;;;;;;;;;4991769;28;20058;-63
2022/12/06 07:19:55;;;;;;;7.63;3.70;;;;;;;;;;4992064;28;20130;-62
2022/12/06 07:22:25;;;;;;;8.35;3.60;;;;;;;;;;4975836;28;20062;-62
2022/12/06 07:24:55;;;;;;;9.13;3.60;;;;;;;;;;4991872;28;20063;-63
2022/12/06 07:27:25;;;;;;;12.73;3.92;;;;;;;;;;4991797;28;20054;-63
2022/12/06 07:29:56;;;;;;;11.75;3.45;;;;;;;;;;5009443;28;20498;-63
2022/12/06 07:32:26;;;;;;;10.15;3.20;;;;;;;;;;5031128;28;20405;-63
2022/12/06 07:34:56;;;;;;;6.07;3.55;;;;;;;;;;5014317;28;20061;-63
2022/12/06 07:37:26;;;;;;;9.43;2.75;;;;;;;;;;4998112;28;20719;-63
2022/12/06 07:39:56;;;;;;;7.97;4.07;;;;;;;;;;5031070;28;20221;-63
2022/12/06 07:45:15;;;;;;;8.05;3.22;;;;;;;;;;5030702;28;20062;-64
2022/12/06 07:47:45;;;;;;;8.77;3.97;;;;;;;;;;5014326;28;20547;-63
2022/12/06 07:50:17;;;;;;;10.25;3.10;;;;;;;;;;5042452;28;20208;-63
2022/12/06 07:52:50;;;;;;;6.80;3.00;;;;;;;;;;5017732;28;20716;-63
2022/12/06 07:55:20;;;;;;;12.85;3.38;;;;;;;;;;5006020;28;20056;-64
2022/12/06 07:57:50;;;;;;;5.28;3.40;;;;;;;;;;5053261;28;20059;-63
2022/12/06 08:00:20;;;;;;;9.98;3.33;;;;;;;;;;5030237;28;20092;-63
2022/12/06 08:02:50;;;;;;;7.47;3.30;;;;;;;;;;5029170;28;20057;-63
2022/12/06 08:05:20;;;;;;;8.07;3.67;;;;;;;;;;5042648;28;20053;-63
2022/12/06 08:07:50;;;;;;;9.52;3.50;;;;;;;;;;5050126;28;20049;-63
2022/12/06 08:10:20;;;;;;;6.93;2.80;;;;;;;;;;5070124;28;20056;-63
2022/12/06 08:12:50;;;;;;;6.30;3.47;;;;;;;;;;5036721;28;20053;-63
2022/12/06 08:15:20;;;;;;;8.55;2.85;;;;;;;;;;5021133;28;20060;-63
2022/12/06 08:17:51;;;;;;;8.82;3.42;;;;;;;;;;5036133;28;20052;-63
2022/12/06 08:20:21;;;;;;;11.18;3.47;;;;;;;;;;5020419;28;20049;-64
2022/12/06 08:22:52;;;;;;;9.52;3.53;;;;;;;;;;5020450;28;20060;-63
2022/12/06 08:25:22;;;;;;;8.20;3.70;;;;;;;;;;5037426;28;20087;-64
2022/12/06 08:27:52;;;;;;;7.78;3.28;;;;;;;;;;5069862;28;20060;-64
2022/12/06 08:30:21;;;;;;;11.57;3.42;;;;;;;;;;5036869;28;20053;-64
2022/12/06 08:32:51;;;;;;;8.88;3.40;;;;;;;;;;5009858;28;20069;-63
2022/12/06 08:35:21;;;;;;;7.13;3.20;;;;;;;;;;5029446;28;20493;-63
2022/12/06 08:37:51;;;;;;;6.40;3.30;;;;;;;;;;5038274;28;20061;-64
2022/12/06 08:40:21;;;;;;;8.38;3.55;;;;;;;;;;5016893;28;20065;-63
2022/12/06 08:42:51;;;;;;;9.90;3.40;;;;;;;;;;5033378;28;20049;-63
2022/12/06 08:45:21;;;;;;;6.78;2.97;;;;;;;;;;5029453;28;20049;-63
2022/12/06 08:47:51;;;;;;;7.95;4.47;;;;;;;;;;5004189;28;20504;-63
2022/12/06 08:50:20;;;;;;;7.80;3.83;;;;;;;;;;5008645;28;20058;-65
2022/12/06 08:52:50;;;;;;;10.30;3.47;;;;;;;;;;5009205;28;20065;-63
2022/12/06 08:55:20;;;;;;;6.28;2.80;;;;;;;;;;5013427;28;20072;-63
2022/12/06 08:57:50;;;;;;;6.65;3.83;;;;;;;;;;5029015;28;20497;-64
2022/12/06 09:00:20;;;;;;;8.57;3.60;;;;;;;;;;5029111;28;20061;-63
2022/12/06 09:02:51;;;;;;;9.70;4.20;;;;;;;;;;5029191;28;20521;-63
2022/12/06 09:05:20;;;;;;;8.82;3.50;;;;;;;;;;4989404;28;20751;-63
2022/12/06 09:07:50;;;;;;;6.88;3.60;;;;;;;;;;4950643;29;20055;-64
2022/12/06 09:10:20;;;;;;;6.97;3.55;;;;;;;;;;4950663;29;20071;-63
2022/12/06 09:12:51;;;;;;;9.05;3.50;;;;;;;;;;4934406;29;20051;-63
2022/12/06 09:15:20;;;;;;;9.85;3.53;;;;;;;;;;4934556;29;20059;-63
2022/12/06 09:17:50;;;;;;;13.73;4.28;;;;;;;;;;4949853;29;20051;-63
2022/12/06 09:20:20;;;;;;;8.65;4.47;;;;;;;;;;4966629;28;20495;-63
2022/12/06 09:22:50;;;;;;;14.20;4.35;;;;;;;;;;4939441;29;20070;-63
2022/12/06 09:25:20;;;;;;;7.88;3.70;;;;;;;;;;4950748;29;20515;-63
2022/12/06 09:27:52;;;;;;;10.20;3.30;;;;;;;;;;4950853;29;20055;-63
2022/12/06 09:30:22;;;;;;;8.73;3.40;;;;;;;;;;4933783;29;20510;-63
2022/12/06 09:32:52;;;;;;;6.18;2.70;;;;;;;;;;4950384;29;20067;-63
2022/12/06 09:35:22;;;;;;;7.22;4.43;;;;;;;;;;4950448;29;20114;-63
2022/12/06 09:37:53;;;;;;;4.53;3.17;;;;;;;;;;4950399;29;20070;-63
2022/12/06 09:40:34;;;;;;;6.35;3.35;;;;;;;;;;4903597;29;20063;-65
2022/12/06 09:43:51;;;;;;;10.40;3.58;;;;;;;;;;4927144;28;20074;-63
2022/12/06 09:47:03;;;;;;;6.35;3.20;;;;;;;;;;4862694;29;20138;-64
2022/12/06 09:49:50;;;;;;;6.97;3.05;;;;;;;;;;4916401;29;20056;-63
2022/12/06 09:52:21;;;;;;;9.68;2.65;;;;;;;;;;4969242;28;20399;-63
2022/12/06 09:55:08;;;;;;;4.60;2.50;;;;;;;;;;4921142;28;20053;-63
2022/12/06 09:57:54;;;;;;;10.55;3.05;;;;;;;;;;4969974;28;20054;-64
2022/12/06 10:00:30;;;;;;;8.60;3.58;;;;;;;;;;4960141;28;20059;-63
2022/12/06 10:03:15;;;;;;;7.53;2.92;;;;;;;;;;4950396;29;20051;-63
2022/12/06 10:06:01;;;;;;;4.80;2.90;;;;;;;;;;4950123;29;20451;-63
2022/12/06 10:08:58;;;;;;;8.07;3.20;;;;;;;;;;4950181;29;20051;-63
2022/12/06 10:11:52;;;;;;;7.45;3.70;;;;;;;;;;4947453;28;20070;-63
2022/12/06 10:14:44;;;;;;;6.90;3.80;;;;;;;;;;4901923;29;20506;-63
2022/12/06 10:17:41;;;;;;;8.20;3.13;;;;;;;;;;4948190;28;20483;-63
2022/12/06 10:20:37;;;;;;;11.25;2.45;;;;;;;;;;4949615;28;20422;-63
2022/12/06 10:23:32;;;;;;;5.10;2.22;;;;;;;;;;4937593;28;20445;-63
2022/12/06 10:26:20;;;;;;;11.98;3.00;;;;;;;;;;4988656;28;20058;-63
2022/12/06 10:29:26;;;;;;;9.68;3.45;;;;;;;;;;4958599;28;20057;-64
2022/12/06 10:32:18;;;;;;;8.15;3.20;;;;;;;;;;5047511;28;20045;-64
2022/12/06 10:34:54;;;;;;;5.88;2.60;;;;;;;;;;5048135;28;21119;-64
2022/12/06 10:37:42;;;;;;;4.32;2.15;;;;;;;;;;5047729;28;20072;-63
2022/12/06 10:40:24;;;;;;;4.25;2.22;;;;;;;;;;5031885;28;20420;-64
2022/12/06 10:43:08;;;;;;;4.35;2.10;;;;;;;;;;5047827;28;20416;-63
2022/12/06 10:49:16;;;;;;;5.72;2.13;;;;;;;;;;5036749;28;20056;-64
2022/12/06 10:51:53;;;;;;;5.10;2.20;;;;;;;;;;4992733;28;20399;-63
2022/12/06 10:54:42;;;;;;;5.57;2.40;;;;;;;;;;4975950;28;20046;-64
2022/12/06 10:57:21;;;;;;;4.47;2.38;;;;;;;;;;4942768;28;20066;-64
2022/12/06 11:00:14;;;;;;;5.05;2.85;;;;;;;;;;4991806;28;20549;-64
2022/12/06 11:02:53;;;;;;;6.90;2.30;;;;;;;;;;4991948;28;20050;-64
2022/12/06 11:05:31;;;;;;;3.40;1.80;;;;;;;;;;4943672;28;20549;-64
2022/12/06 11:08:43;;;;;;;2.65;1.52;;;;;;;;;;4943456;28;20608;-64
2022/12/06 11:11:18;;;;;;;3.80;2.20;;;;;;;;;;4936570;29;20051;-64
2022/12/06 11:14:14;;;;;;;3.80;2.08;;;;;;;;;;4936568;29;20054;-64
2022/12/06 11:16:54;;;;;;;3.75;1.45;;;;;;;;;;4914804;29;20060;-63
2022/12/06 11:19:37;;;;;;;2.50;1.52;;;;;;;;;;4914552;29;20056;-64
2022/12/06 11:22:08;;;;;;;3.30;2.08;;;;;;;;;;4931819;28;20063;-63
2022/12/06 11:24:59;;;;;;;5.05;2.35;;;;;;;;;;4972404;28;20054;-64
2022/12/06 11:27:35;;;;;;;5.40;1.60;;;;;;;;;;4972123;28;20057;-64
2022/12/06 11:30:23;;;;;;;3.78;1.70;;;;;;;;;;4980200;28;20057;-64
2022/12/06 11:32:54;;;;;;;3.10;1.38;;;;;;;;;;4989567;28;20054;-63
2022/12/06 11:35:26;;;;;;;2.53;2.33;;;;;;;;;;4991805;28;20062;-63
2022/12/06 11:38:04;;;;;;;2.35;1.70;;;;;;;;;;4959056;28;20054;-64
2022/12/06 11:40:41;;;;;;;5.03;1.70;;;;;;;;;;4990822;28;20078;-63
2022/12/06 11:43:34;;;;;;;2.53;1.88;;;;;;;;;;4990885;28;20509;-64
2022/12/06 11:46:07;;;;;;;2.78;1.30;;;;;;;;;;4990356;28;20042;-63
2022/12/06 11:48:37;;;;;;;3.03;1.55;;;;;;;;;;5000911;28;20050;-63
2022/12/06 11:51:23;;;;;;;3.05;1.85;;;;;;;;;;5010641;28;20157;-63
2022/12/06 11:54:07;;;;;;;2.55;1.45;;;;;;;;;;5038907;28;20071;-63
2022/12/06 11:56:39;;;;;;;3.65;1.73;;;;;;;;;;5093175;28;20050;-63
2022/12/06 11:59:27;;;;;;;3.80;1.85;;;;;;;;;;5107739;28;20048;-64
2022/12/06 12:02:00;;;;;;;5.88;1.67;;;;;;;;;;5104703;28;20035;-63
2022/12/06 12:04:31;;;;;;;2.70;1.90;;;;;;;;;;5069935;28;20574;-63
2022/12/06 12:07:13;;;;;;;2.42;1.20;;;;;;;;;;5036709;28;20431;-64
2022/12/06 12:09:50;;;;;;;2.05;1.30;;;;;;;;;;5070295;28;20408;-64
2022/12/06 12:13:43;;;;;;;2.15;1.50;;;;;;;;;;5070199;28;20076;-64
2022/12/06 12:15:18;;;;;;;2.70;1.70;;;;;;;;;;5069850;28;20051;-64
2022/12/06 12:17:52;;;;;;;2.28;1.67;;;;;;;;;;5049753;28;20056;-64
2022/12/06 12:20:33;;;;;;;2.60;1.77;;;;;;;;;;5050016;28;20523;-64
2022/12/06 12:23:15;;;;;;;2.97;1.45;;;;;;;;;;5036667;28;20044;-68
2022/12/06 12:25:59;;;;;;;2.03;1.73;;;;;;;;;;5059772;28;20049;-65
2022/12/06 12:28:32;;;;;;;2.28;1.13;;;;;;;;;;5035395;28;20412;-62
2022/12/06 12:31:18;;;;;;;2.40;1.63;;;;;;;;;;5069410;28;20059;-62
2022/12/06 12:34:13;;;;;;;2.63;1.63;;;;;;;;;;5019440;28;20056;-63
2022/12/06 12:36:49;;;;;;;4.00;1.70;;;;;;;;;;5024161;28;20040;-62
2022/12/06 12:39:38;;;;;;;3.70;2.03;;;;;;;;;;5015305;28;20046;-62
2022/12/06 12:42:33;;;;;;;2.60;1.15;;;;;;;;;;5022743;28;20053;-64
2022/12/06 12:45:05;;;;;;;1.85;1.45;;;;;;;;;;5009665;28;20049;-64
2022/12/06 12:47:35;;;;;;;2.30;1.70;;;;;;;;;;5026038;28;20046;-64
2022/12/06 12:50:22;;;;;;;3.83;1.50;;;;;;;;;;4960707;28;20061;-64
2022/12/06 12:52:53;;;;;;;3.00;1.50;;;;;;;;;;5009650;28;20042;-63
2022/12/06 12:55:29;;;;;;;2.65;1.60;;;;;;;;;;5027358;28;20056;-65
2022/12/06 12:58:00;;;;;;;1.70;1.42;;;;;;;;;;5049165;28;20448;-65
2022/12/06 13:00:51;;;;;;;2.03;1.38;;;;;;;;;;5008803;28;20057;-64
2022/12/06 13:03:25;;;;;;;2.38;1.60;;;;;;;;;;5068808;28;20071;-63
2022/12/06 13:06:27;;;;;;;2.30;1.00;;;;;;;;;;5065110;28;20080;-64
2022/12/06 13:09:03;;;;;;;1.25;0.93;;;;;;;;;;5036186;28;20412;-65
2022/12/06 13:11:42;;;;;;;2.70;1.65;;;;;;;;;;5048817;28;20594;-62
2022/12/06 13:14:21;;;;;;;3.55;1.30;;;;;;;;;;5049259;28;20068;-65
2022/12/06 13:16:55;;;;;;;4.05;1.10;;;;;;;;;;5025836;28;20048;-62
2022/12/06 13:19:34;;;;;;;2.72;1.30;;;;;;;;;;5072133;28;20056;-62
2022/12/06 13:22:06;;;;;;;2.55;1.55;;;;;;;;;;5055802;28;20056;-62
2022/12/06 13:24:37;;;;;;;;;;;;;;;;;;5089332;28;20059;-62
2022/12/06 13:27:15;;;;;;;1.73;1.30;;;;;;;;;;5072448;28;19920;-62
2022/12/06 13:30:12;;;;;;;4.03;1.42;;;;;;;;;;5089464;28;20052;-61
2022/12/06 13:32:54;;;;;;;2.17;1.98;;;;;;;;;;5091424;28;20479;-61
2022/12/06 13:35:53;;;;;;;4.63;1.15;;;;;;;;;;5091630;28;20048;-63
2022/12/06 13:38:29;;;;;;;1.83;1.17;;;;;;;;;;4996352;28;20053;-62
2022/12/06 13:41:01;;;;;;;4.32;1.40;;;;;;;;;;5011949;28;20398;-61
2022/12/06 13:43:31;;;;;;;2.72;1.60;;;;;;;;;;4976246;28;20053;-62
2022/12/06 13:46:11;;;;;;;4.85;1.42;;;;;;;;;;4950202;29;20048;-61
2022/12/06 13:48:54;;;;;;;9.52;3.50;;;;;;;;;;4934004;29;20091;-61
2022/12/06 13:51:34;;;;;;;3.53;1.73;;;;;;;;;;4967349;28;20054;-62
2022/12/06 13:54:04;;;;;;;2.05;1.23;;;;;;;;;;4966691;28;20066;-62
2022/12/06 13:56:34;;;;;;;2.00;1.13;;;;;;;;;;4969317;28;20058;-62
2022/12/06 13:59:23;;;;;;;2.60;1.17;;;;;;;;;;4950094;28;20440;-63
2022/12/06 14:01:59;;;;;;;3.05;1.83;;;;;;;;;;4949373;28;20059;-62
2022/12/06 14:04:32;;;;;;;3.00;1.45;;;;;;;;;;4920623;28;20062;-63
2022/12/06 14:07:07;;;;;;;3.40;1.38;;;;;;;;;;4950307;28;20043;-62
2022/12/06 14:09:35;;;;;;;4.20;1.48;;;;;;;;;;4950350;28;20055;-62
2022/12/06 14:12:24;;;;;;;5.68;1.27;;;;;;;;;;4949824;28;20546;-63
2022/12/06 14:14:59;;;;;;;2.58;1.33;;;;;;;;;;4909302;28;20412;-62
2022/12/06 14:17:40;;;;;;;4.35;1.25;;;;;;;;;;4995140;28;20046;-62
2022/12/06 14:20:31;;;;;;;2.80;1.50;;;;;;;;;;4988386;28;20068;-63
2022/12/06 14:23:01;;;;;;;3.40;1.13;;;;;;;;;;4951002;28;20571;-62
2022/12/06 14:25:32;;;;;;;2.17;1.45;;;;;;;;;;5031368;28;20053;-62
2022/12/06 14:28:11;;;;;;;2.35;1.90;;;;;;;;;;5047850;28;20041;-62
2022/12/06 14:30:43;;;;;;;2.55;1.50;;;;;;;;;;5047868;28;20404;-61
2022/12/06 14:33:23;;;;;;;3.67;1.75;;;;;;;;;;5031241;28;20059;-62
2022/12/06 14:35:55;;;;;;;5.18;1.80;;;;;;;;;;5030454;28;20052;-62
2022/12/06 14:38:30;;;;;;;3.63;1.40;;;;;;;;;;5090256;28;20048;-62
2022/12/06 14:43:49;;;;;;;2.00;1.35;;;;;;;;;;5090483;28;20040;-62
2022/12/06 14:46:21;;;;;;;2.45;1.55;;;;;;;;;;5090497;28;20044;-62
2022/12/06 14:51:40;;;;;;;2.97;1.25;;;;;;;;;;5090584;28;20044;-63
2022/12/06 14:54:30;;;;;;;7.18;2.35;;;;;;;;;;5090791;28;20051;-61
2022/12/06 14:57:02;;;;;;;3.60;1.60;;;;;;;;;;5093123;28;20050;-62
2022/12/06 14:59:33;;;;;;;9.20;1.90;;;;;;;;;;4978744;28;20048;-62
2022/12/06 15:02:26;;;;;;;1.45;0.85;;;;;;;;;;4988317;28;20050;-62
2022/12/06 15:04:58;;;;;;;2.38;1.30;;;;;;;;;;4940252;28;20062;-62
2022/12/06 15:07:41;;;;;;;2.50;1.02;;;;;;;;;;4956318;28;20050;-61
2022/12/06 15:10:19;;;;;;;1.98;1.27;;;;;;;;;;4988368;28;20059;-62
2022/12/06 15:12:55;;;;;;;;;;;;;;;;;;4988648;28;20054;-62
2022/12/06 15:15:41;;;;;;;2.10;1.13;;;;;;;;;;4988447;28;19929;-61
2022/12/06 15:18:36;;;;;;;4.82;1.75;;;;;;;;;;4988348;28;20061;-61
2022/12/06 15:21:12;;;;;;;2.47;1.30;;;;;;;;;;4956032;28;20073;-60
2022/12/06 15:23:49;;;;;;;1.50;0.98;;;;;;;;;;5007480;28;20049;-61
2022/12/06 15:26:21;;;;;;;2.33;1.50;;;;;;;;;;4975926;28;20510;-61
2022/12/06 15:28:53;;;;;;;4.93;1.25;;;;;;;;;;5010243;28;20080;-61
2022/12/06 15:31:27;;;;;;;1.52;0.93;;;;;;;;;;5011431;28;20057;-60
2022/12/06 15:33:57;;;;;;;1.80;1.38;;;;;;;;;;5010687;28;20042;-60
2022/12/06 15:36:33;;;;;;;4.32;1.08;;;;;;;;;;5023168;28;20439;-60
2022/12/06 15:39:04;;;;;;;3.03;1.20;;;;;;;;;;5021154;28;20060;-61
2022/12/06 15:41:36;;;;;;;2.25;1.50;;;;;;;;;;5070871;28;20063;-61
2022/12/06 15:44:16;;;;;;;4.65;1.73;;;;;;;;;;4988037;28;20511;-62
2022/12/06 15:46:48;;;;;;;4.72;1.50;;;;;;;;;;5053892;28;20075;-61
2022/12/06 15:49:22;;;;;;;2.42;2.22;;;;;;;;;;5004666;28;20048;-61
2022/12/06 15:51:52;;;;;;;1.75;1.30;;;;;;;;;;5070718;28;20049;-61
2022/12/06 15:54:25;;;;;;;2.90;1.38;;;;;;;;;;5070691;28;20052;-61
2022/12/06 15:56:55;;;;;;;4.25;1.38;;;;;;;;;;5029815;28;20072;-61
2022/12/06 15:59:26;;;;;;;3.33;1.40;;;;;;;;;;4981180;28;20053;-61
2022/12/06 16:01:56;;;;;;;2.35;1.33;;;;;;;;;;5045566;28;20045;-60
2022/12/06 16:04:29;;;;;;;4.45;1.65;;;;;;;;;;5050604;28;20512;-61
2022/12/06 16:06:59;;;;;;;3.08;1.55;;;;;;;;;;5050285;28;20049;-62